»·PEaware :: N313N KPSP-KLAS

N313N :: KPSP-KLAS

FLIGHT INFORMATION

Flight Status: Arrived
Operator: Privately registered:
United States
More flights under this callsign
Pilot: Damien O. (2415)
Aircraft: GULFSTREAM G-1159C GULFSTREAM 4
(GLF4)
More flights by this aircraft type
Origin: KPSP Palm Springs Intl
United States
Destination: KLAS McCarran Intl
United States
More flights between these airports :: More routes between these airports
Route: +PSP V370 TNP KEPEC6
File this flight plan on PilotEdge
Remarks:
Altitude:
(Current/Filed)
179ft
Speed:
(Current/Filed)
330kts
Departed: 20-Apr-19 12:29 PM
Arrived: 20-Apr-19 01:08 PM
Distance/Time
Traveled:
151nm/0:38
Distance/Time
To Go:
Arrived

Flight Plot

Page will automatically refresh every two minutes.

Flight plan parsing failed; only flown route is shown


Map Options




Map Legend


Flown Route
Filed Route
Departure Airport
Arrival Airport
Navaid (VOR, NDB)
Fix

Horizontal Profiles

Position Reports

Time Latitude Longitude Heading Altitude Ground
Speed
20-Apr-19 11:55 33.825803 -116.508750 114 485ft 0kts
20-Apr-19 11:56 33.825803 -116.508750 114 485ft 0kts
20-Apr-19 11:57 33.825803 -116.508750 114 485ft 0kts
20-Apr-19 11:58 33.825803 -116.508750 114 485ft 0kts
20-Apr-19 11:59 33.825803 -116.508750 114 485ft 0kts
20-Apr-19 12:00 33.825803 -116.508750 114 485ft 0kts
20-Apr-19 12:01 33.825803 -116.508750 114 485ft 0kts
20-Apr-19 12:02 33.825803 -116.508750 114 485ft 0kts
20-Apr-19 12:03 33.825803 -116.508750 114 485ft 0kts
20-Apr-19 12:04 33.825803 -116.508750 114 485ft 0kts
20-Apr-19 12:05 33.825803 -116.508750 114 485ft 0kts
20-Apr-19 12:06 33.825803 -116.508750 114 485ft 0kts
20-Apr-19 12:07 33.825803 -116.508750 114 485ft 0kts
20-Apr-19 12:08 33.825803 -116.508750 114 485ft 0kts
20-Apr-19 12:09 33.825803 -116.508750 114 485ft 0kts
20-Apr-19 12:10 33.825803 -116.508750 114 485ft 0kts
20-Apr-19 12:11 33.825803 -116.508750 114 485ft 0kts
20-Apr-19 12:12 33.825803 -116.508750 114 485ft 0kts
20-Apr-19 12:13 33.825803 -116.508750 114 485ft 0kts
20-Apr-19 12:14 33.825803 -116.508750 114 485ft 0kts
20-Apr-19 12:15 33.825803 -116.508750 114 485ft 0kts
20-Apr-19 12:16 33.825803 -116.508750 114 485ft 0kts
20-Apr-19 12:17 33.825803 -116.508750 114 485ft 0kts
20-Apr-19 12:18 33.825803 -116.508750 114 485ft 0kts
20-Apr-19 12:19 33.825803 -116.508750 114 485ft 0kts
20-Apr-19 12:20 33.825803 -116.508750 114 485ft 0kts
20-Apr-19 12:21 33.825803 -116.508750 114 485ft 0kts
20-Apr-19 12:22 33.825803 -116.508750 114 485ft 0kts
20-Apr-19 12:23 33.825630 -116.507820 99 485ft 12kts
20-Apr-19 12:24 33.823689 -116.504333 143 485ft 17kts
20-Apr-19 12:25 33.818934 -116.500104 140 485ft 18kts
20-Apr-19 12:26 33.818384 -116.499262 94 485ft 0kts
20-Apr-19 12:27 33.819100 -116.498347 344 485ft 14kts
20-Apr-19 12:28 33.856493 -116.534332 321 2049ft 236kts
20-Apr-19 12:29 33.913060 -116.558573 41 3622ft 245kts
20-Apr-19 12:30 33.909238 -116.476646 106 5928ft 288kts
20-Apr-19 12:31 33.904169 -116.383282 66 9001ft 298kts
20-Apr-19 12:32 33.937171 -116.289615 66 12007ft 331kts
20-Apr-19 12:33 33.983849 -116.159803 66 13903ft 447kts
20-Apr-19 12:34 34.025682 -116.043074 66 15460ft 514kts
20-Apr-19 12:35 34.084651 -115.877824 66 18964ft 554kts
20-Apr-19 12:36 34.154978 -115.715148 46 18965ft 548kts
20-Apr-19 12:37 34.263689 -115.587261 41 18947ft 547kts
20-Apr-19 12:38 34.386843 -115.486884 15 18967ft 540kts
20-Apr-19 12:39 34.528749 -115.428752 15 18945ft 539kts
20-Apr-19 12:40 34.671051 -115.372304 5 19035ft 537kts
20-Apr-19 12:41 34.814982 -115.402290 342 19004ft 528kts
20-Apr-19 12:42 34.957768 -115.445164 343 19004ft 532kts
20-Apr-19 12:43 35.112546 -115.492004 343 19033ft 585kts
20-Apr-19 12:44 35.270670 -115.540225 343 17864ft 591kts
20-Apr-19 12:45 35.425781 -115.588634 343 15856ft 520kts
20-Apr-19 12:46 35.551771 -115.627867 343 13813ft 424kts
20-Apr-19 12:47 35.652909 -115.659245 343 13035ft 322kts
20-Apr-19 12:48 35.730469 -115.632596 46 13059ft 329kts
20-Apr-19 12:49 35.794647 -115.560170 2 13084ft 322kts
20-Apr-19 12:50 35.884051 -115.552865 1 13040ft 322kts
20-Apr-19 12:51 35.972569 -115.544787 15 13019ft 323kts
20-Apr-19 12:52 36.015275 -115.455009 76 11598ft 313kts
20-Apr-19 12:53 36.032343 -115.356978 95 10782ft 286kts
20-Apr-19 12:54 36.026642 -115.259454 96 9067ft 279kts
20-Apr-19 12:55 36.021980 -115.175761 96 9042ft 253kts
20-Apr-19 12:56 36.017882 -115.088017 96 8023ft 240kts
20-Apr-19 12:57 36.016154 -115.015354 96 8032ft 190kts
20-Apr-19 12:58 36.051660 -114.970573 21 8015ft 214kts
20-Apr-19 12:59 36.107066 -114.946724 21 7490ft 221kts
20-Apr-19 13:00 36.163807 -114.929305 335 5571ft 203kts
20-Apr-19 13:01 36.183755 -114.989568 282 5487ft 178kts
20-Apr-19 13:02 36.196221 -115.046902 281 4489ft 188kts
20-Apr-19 13:03 36.200202 -115.104073 226 3487ft 177kts
20-Apr-19 13:04 36.158851 -115.126671 195 3364ft 178kts
20-Apr-19 13:05 36.122174 -115.144401 202 2943ft 167kts
20-Apr-19 13:06 36.092711 -115.160516 204 2189ft 90kts
20-Apr-19 13:07 36.089156 -115.165459 219 2189ft 0kts
20-Apr-19 13:08 36.089156 -115.165459 219 2189ft 0kts
20-Apr-19 13:09 36.089156 -115.165459 219 2189ft 0kts
20-Apr-19 13:10 36.089156 -115.165459 219 2189ft 0kts
20-Apr-19 13:11 36.089156 -115.165459 219 2189ft 0kts
20-Apr-19 13:12 36.089156 -115.165459 219 2189ft 0kts
20-Apr-19 13:13 36.089156 -115.165459 219 2189ft 0kts
20-Apr-19 13:14 36.089156 -115.165459 219 2189ft 0kts
20-Apr-19 13:15 36.089156 -115.165459 219 2189ft 0kts
20-Apr-19 13:16 36.089156 -115.165459 219 2189ft 0kts
20-Apr-19 13:17 36.089156 -115.165459 219 2189ft 0kts
20-Apr-19 13:19 36.089156 -115.165459 219 2189ft 0kts
20-Apr-19 13:20 36.089156 -115.165459 219 2189ft 0kts
20-Apr-19 13:21 36.089156 -115.165459 219 2189ft 0kts
20-Apr-19 13:22 36.089156 -115.165459 219 2189ft 0kts

Navigation Log

Ident Type
Flight plan parsing failed, navigation log unavailable